createdAt,value
2023-03-21T00:00:25.726Z,9.97
2023-03-21T00:01:27.868Z,9.98
2023-03-21T00:02:30.028Z,9.98
2023-03-21T00:03:36.858Z,9.98
2023-03-21T00:04:50.820Z,9.99
2023-03-21T00:05:45.701Z,9.99
2023-03-21T00:06:48.407Z,9.99
2023-03-21T00:07:52.173Z,10.02
2023-03-21T00:09:00.104Z,10.01
2023-03-21T00:10:15.459Z,10.03
2023-03-21T00:11:13.183Z,10.02
2023-03-21T00:12:17.020Z,10.01
2023-03-21T00:13:20.124Z,10.03
2023-03-21T00:14:26.702Z,10.04
2023-03-21T00:15:41.322Z,10.05
2023-03-21T00:16:41.864Z,10.04
2023-03-21T00:17:47.146Z,10.02
2023-03-21T00:18:53.160Z,10.03
2023-03-21T00:19:56.502Z,10.01
2023-03-21T00:21:33.787Z,10.02
2023-03-21T00:22:08.858Z,10.01
2023-03-21T00:23:14.524Z,10.02
2023-03-21T00:24:23.444Z,10.03
2023-03-21T00:26:53.752Z,10.01
2023-03-21T00:28:08.315Z,10.03
2023-03-21T00:29:07.714Z,10.01
2023-03-21T00:30:13.793Z,10.01
2023-03-21T00:31:18.254Z,10.02
2023-03-21T00:32:23.503Z,10.01
2023-03-21T00:33:29.685Z,10.01
2023-03-21T00:34:43.126Z,10.01
2023-03-21T00:36:59.573Z,10.12
2023-03-21T00:38:03.752Z,9.95
2023-03-21T00:39:09.896Z,9.96
2023-03-21T00:40:25.669Z,9.96
2023-03-21T00:41:35.056Z,9.96
2023-03-21T00:42:27.516Z,9.97
2023-03-21T00:43:29.758Z,9.95
2023-03-21T00:44:33.637Z,9.96
2023-03-21T00:45:37.613Z,9.96
2023-03-21T00:47:00.789Z,9.93
2023-03-21T00:47:59.285Z,9.91
2023-03-21T00:49:05.420Z,9.89
2023-03-21T00:50:10.164Z,9.91
2023-03-21T00:52:40.855Z,10.04
2023-03-21T00:53:39.653Z,9.84
2023-03-21T00:54:42.833Z,9.83
2023-03-21T00:55:45.451Z,9.84
2023-03-21T00:56:50.178Z,9.83
2023-03-21T00:58:01.458Z,9.82
2023-03-21T00:58:59.962Z,9.80
2023-03-21T01:00:02.381Z,9.82
2023-03-21T01:01:06.762Z,9.81
2023-03-21T01:02:09.382Z,9.81
2023-03-21T01:03:23.801Z,9.80
2023-03-21T01:04:17.519Z,9.80
2023-03-21T01:05:19.621Z,9.80
2023-03-21T01:06:23.044Z,9.81
2023-03-21T01:07:26.080Z,9.80
2023-03-21T01:08:35.178Z,9.78
2023-03-21T01:09:32.664Z,9.79
2023-03-21T01:10:38.519Z,9.77
2023-03-21T01:11:41.065Z,9.76
2023-03-21T01:12:43.217Z,9.76
2023-03-21T01:13:54.722Z,9.74
2023-03-21T01:14:51.092Z,9.73
2023-03-21T01:15:55.604Z,9.74
2023-03-21T01:16:57.804Z,9.72
2023-03-21T01:18:00.661Z,9.72
2023-03-21T01:19:06.933Z,9.71
2023-03-21T01:20:14.231Z,9.72
2023-03-21T01:21:17.160Z,9.72
2023-03-21T01:22:19.556Z,9.73
2023-03-21T01:23:23.365Z,9.74
2023-03-21T01:24:25.722Z,9.76
2023-03-21T01:25:27.979Z,9.75
2023-03-21T01:26:30.773Z,9.75
2023-03-21T01:27:33.377Z,9.75
2023-03-21T01:28:37.369Z,9.76
2023-03-21T01:29:40.181Z,9.76
2023-03-21T01:30:51.684Z,9.76
2023-03-21T01:31:54.034Z,9.75
2023-03-21T01:32:56.371Z,9.76
2023-03-21T01:33:58.530Z,9.76
2023-03-21T01:35:00.826Z,9.74
2023-03-21T01:36:12.745Z,9.75
2023-03-21T01:37:08.121Z,9.75
2023-03-21T01:38:13.699Z,9.76
2023-03-21T01:39:19.133Z,9.74
2023-03-21T01:40:25.828Z,9.74
2023-03-21T01:41:42.356Z,9.74
2023-03-21T01:42:38.545Z,9.71
2023-03-21T01:43:40.791Z,9.72
2023-03-21T01:45:02.070Z,9.72
2023-03-21T01:46:32.325Z,9.73
2023-03-21T01:47:35.903Z,9.74
2023-03-21T01:48:42.871Z,9.74
2023-03-21T01:49:48.640Z,9.70
2023-03-21T01:51:00.647Z,9.69
2023-03-21T01:54:34.081Z,9.58
2023-03-21T01:55:37.665Z,9.59
2023-03-21T01:58:16.323Z,9.73
2023-03-21T02:00:53.459Z,9.73
2023-03-21T02:02:09.808Z,9.53
2023-03-21T02:03:23.448Z,9.55
2023-03-21T02:04:22.221Z,9.58
2023-03-21T02:05:42.474Z,9.59
2023-03-21T02:06:51.784Z,9.61
2023-03-21T02:08:04.632Z,9.58
2023-03-21T02:09:11.856Z,9.63
2023-03-21T02:10:16.213Z,9.63
2023-03-21T02:11:21.590Z,9.60
2023-03-21T02:12:26.152Z,9.58
2023-03-21T02:13:28.581Z,9.57
2023-03-21T02:14:51.065Z,9.57
2023-03-21T02:16:20.050Z,9.57
2023-03-21T02:19:47.538Z,9.75
2023-03-21T02:21:10.666Z,9.52
2023-03-21T02:22:40.835Z,9.53
2023-03-21T02:24:02.376Z,9.55
2023-03-21T02:25:24.075Z,9.55
2023-03-21T02:26:30.750Z,9.51
2023-03-21T02:27:34.722Z,9.49
2023-03-21T02:28:40.756Z,9.47
2023-03-21T02:29:53.574Z,9.44
2023-03-21T02:31:17.797Z,9.43
2023-03-21T02:32:41.096Z,9.43
2023-03-21T02:35:54.425Z,9.60
2023-03-21T02:37:14.529Z,9.41
2023-03-21T02:38:38.652Z,9.40
2023-03-21T02:39:45.516Z,9.40
2023-03-21T02:41:03.363Z,9.41
2023-03-21T02:42:20.936Z,9.40
2023-03-21T02:43:57.132Z,9.41
2023-03-21T02:45:15.945Z,9.40
2023-03-21T02:47:55.023Z,9.53
2023-03-21T02:49:13.207Z,9.35
2023-03-21T02:50:23.529Z,9.36
2023-03-21T02:51:29.382Z,9.39
2023-03-21T02:52:39.549Z,9.38
2023-03-21T02:53:43.470Z,9.38
2023-03-21T02:54:48.850Z,9.39
2023-03-21T02:55:55.146Z,9.36
2023-03-21T02:56:59.988Z,9.37
2023-03-21T02:58:12.930Z,9.38
2023-03-21T02:59:10.119Z,9.38
2023-03-21T03:00:19.033Z,9.38
2023-03-21T03:01:22.314Z,9.39
2023-03-21T03:02:28.509Z,9.40
2023-03-21T03:03:34.441Z,9.41
2023-03-21T03:04:36.124Z,9.40
2023-03-21T03:05:51.609Z,9.38
2023-03-21T03:06:57.501Z,9.41
2023-03-21T03:08:03.485Z,9.42
2023-03-21T03:09:25.108Z,9.41
2023-03-21T03:10:52.685Z,9.40
2023-03-21T03:12:07.433Z,9.43
2023-03-21T03:13:13.379Z,9.42
2023-03-21T03:16:08.585Z,9.52
2023-03-21T03:17:25.229Z,9.29
2023-03-21T03:18:41.329Z,9.32
2023-03-21T03:21:21.684Z,9.44
2023-03-21T03:22:30.828Z,9.18
2023-03-21T03:23:43.198Z,9.17
2023-03-21T03:26:13.794Z,9.29
2023-03-21T03:27:34.906Z,9.07
2023-03-21T03:28:42.092Z,9.10
2023-03-21T03:29:48.879Z,9.10
2023-03-21T03:31:07.980Z,9.10
2023-03-21T03:32:14.826Z,9.08
2023-03-21T03:33:19.653Z,9.07
2023-03-21T03:34:25.518Z,9.05
2023-03-21T03:35:30.507Z,9.04
2023-03-21T03:36:36.690Z,9.01
2023-03-21T03:37:43.724Z,9.02
2023-03-21T03:38:49.282Z,9.00
2023-03-21T03:40:01.626Z,8.97
2023-03-21T03:41:12.248Z,8.96
2023-03-21T03:42:28.508Z,8.93
2023-03-21T03:43:44.258Z,8.93
2023-03-21T03:44:47.751Z,8.93
2023-03-21T03:45:57.386Z,8.93
2023-03-21T03:47:06.526Z,8.91
2023-03-21T03:48:20.986Z,8.92
2023-03-21T03:49:26.986Z,8.90
2023-03-21T03:50:36.025Z,8.90
2023-03-21T03:52:04.365Z,8.88
2023-03-21T03:53:18.772Z,8.90
2023-03-21T03:54:26.402Z,8.94
2023-03-21T03:55:32.219Z,8.96
2023-03-21T03:56:38.205Z,8.97
2023-03-21T03:57:40.740Z,8.98
2023-03-21T03:58:45.979Z,9.00
2023-03-21T03:59:49.705Z,9.00
2023-03-21T04:01:02.829Z,9.02
2023-03-21T04:02:05.442Z,9.05
2023-03-21T04:03:07.911Z,9.08
2023-03-21T04:04:13.286Z,9.08
2023-03-21T04:05:15.028Z,9.10
2023-03-21T04:06:19.252Z,9.11
2023-03-21T04:07:22.322Z,9.13
2023-03-21T04:08:26.793Z,9.12
2023-03-21T04:09:43.086Z,9.11
2023-03-21T04:10:35.747Z,9.14
2023-03-21T04:11:38.245Z,9.16
2023-03-21T04:12:40.937Z,9.15
2023-03-21T04:13:54.026Z,9.14
2023-03-21T04:15:08.131Z,9.13
2023-03-21T04:16:04.465Z,9.11
2023-03-21T04:17:06.660Z,9.08
2023-03-21T04:18:08.789Z,9.08
2023-03-21T04:19:12.175Z,9.06
2023-03-21T04:20:23.569Z,9.04
2023-03-21T04:21:19.634Z,9.00
2023-03-21T04:22:21.988Z,8.96
2023-03-21T04:23:24.891Z,8.95
2023-03-21T04:24:27.457Z,8.92
2023-03-21T04:25:33.941Z,8.89
2023-03-21T04:26:36.146Z,8.85
2023-03-21T04:27:56.880Z,8.81
2023-03-21T04:29:05.746Z,8.82
2023-03-21T04:30:18.919Z,8.78
2023-03-21T04:31:26.199Z,8.79
2023-03-21T04:32:28.348Z,8.79
2023-03-21T04:33:32.556Z,8.77
2023-03-21T04:34:34.842Z,8.78
2023-03-21T04:35:37.855Z,8.77
2023-03-21T04:36:41.273Z,8.77
2023-03-21T04:37:44.029Z,8.79
2023-03-21T04:38:48.049Z,8.81
2023-03-21T04:39:51.898Z,8.81
2023-03-21T04:40:54.829Z,8.81
2023-03-21T04:41:57.214Z,8.85
2023-03-21T04:43:00.053Z,8.86
2023-03-21T04:44:03.382Z,8.87
2023-03-21T04:45:07.551Z,8.87
2023-03-21T04:46:10.608Z,8.88
2023-03-21T04:47:14.112Z,8.94
2023-03-21T04:48:16.916Z,8.98
2023-03-21T04:49:19.593Z,9.03
2023-03-21T04:50:21.970Z,9.09
2023-03-21T04:51:24.255Z,9.16
2023-03-21T04:52:26.642Z,9.22
2023-03-21T04:53:28.825Z,9.30
2023-03-21T04:54:31.037Z,9.36
2023-03-21T04:56:51.744Z,9.61
2023-03-21T04:57:54.622Z,9.47
2023-03-21T05:00:16.762Z,9.77
2023-03-21T05:01:19.128Z,9.66
2023-03-21T05:02:21.292Z,9.74
2023-03-21T05:03:25.635Z,9.76
2023-03-21T05:04:28.403Z,9.82
2023-03-21T05:05:31.327Z,9.86
2023-03-21T05:06:35.505Z,9.90
2023-03-21T05:07:40.533Z,9.96
2023-03-21T05:08:43.956Z,9.98
2023-03-21T05:09:47.559Z,10.04
2023-03-21T05:10:52.302Z,10.07
2023-03-21T05:11:55.427Z,10.11
2023-03-21T05:12:57.954Z,10.16
2023-03-21T05:14:02.639Z,10.20
2023-03-21T05:15:08.854Z,10.25
2023-03-21T05:16:12.625Z,10.29
2023-03-21T05:17:15.428Z,10.31
2023-03-21T05:18:18.084Z,10.31
2023-03-21T05:20:38.884Z,10.42
2023-03-21T05:21:41.613Z,10.24
2023-03-21T05:22:46.135Z,10.26
2023-03-21T05:23:50.191Z,10.26
2023-03-21T05:24:53.747Z,10.27
2023-03-21T05:25:58.420Z,10.25
2023-03-21T05:27:02.573Z,10.25
2023-03-21T05:28:07.375Z,10.24
2023-03-21T05:29:10.608Z,10.24
2023-03-21T05:30:17.157Z,10.23
2023-03-21T05:31:21.636Z,10.23
2023-03-21T05:32:25.722Z,10.23
2023-03-21T05:33:28.304Z,10.20
2023-03-21T05:34:31.010Z,10.20
2023-03-21T05:35:34.146Z,10.18
2023-03-21T05:36:38.977Z,10.18
2023-03-21T05:37:43.485Z,10.20
2023-03-21T05:38:46.432Z,10.18
2023-03-21T05:39:49.614Z,10.17
2023-03-21T05:40:55.110Z,10.18
2023-03-21T05:41:57.353Z,10.14
2023-03-21T05:43:00.408Z,10.12
2023-03-21T05:44:02.801Z,10.11
2023-03-21T05:45:07.209Z,10.08
2023-03-21T05:46:11.559Z,10.07
2023-03-21T05:47:16.293Z,10.05
2023-03-21T05:48:20.511Z,10.04
2023-03-21T05:49:31.266Z,10.04
2023-03-21T05:50:35.317Z,10.03
2023-03-21T05:51:45.197Z,10.01
2023-03-21T05:52:48.080Z,9.98
2023-03-21T05:53:50.226Z,9.96
2023-03-21T05:54:52.156Z,9.95
2023-03-21T05:55:57.007Z,9.95
2023-03-21T05:57:07.984Z,9.93
2023-03-21T05:58:24.184Z,9.92
2023-03-21T05:59:26.644Z,9.94
2023-03-21T06:00:30.836Z,9.93
2023-03-21T06:01:38.056Z,9.92
2023-03-21T06:02:45.257Z,9.91
2023-03-21T06:03:50.049Z,9.90
2023-03-21T06:04:54.268Z,9.89
2023-03-21T06:05:57.442Z,9.89
2023-03-21T06:07:02.262Z,9.90
2023-03-21T06:08:05.224Z,9.90
2023-03-21T06:09:08.806Z,9.91
2023-03-21T06:10:12.901Z,9.91
2023-03-21T06:11:22.198Z,9.91
2023-03-21T06:12:26.301Z,9.91
2023-03-21T06:13:41.997Z,9.92
2023-03-21T06:14:44.294Z,9.92
2023-03-21T06:15:54.679Z,9.92
2023-03-21T06:16:59.857Z,9.95
2023-03-21T06:18:02.660Z,9.96
2023-03-21T06:19:06.774Z,9.97
2023-03-21T06:20:17.402Z,9.98
2023-03-21T06:21:21.963Z,10.00
2023-03-21T06:22:24.371Z,10.02
2023-03-21T06:23:26.560Z,10.04
2023-03-21T06:24:31.836Z,10.04
2023-03-21T06:25:34.481Z,10.06
2023-03-21T06:26:37.626Z,10.07
2023-03-21T06:27:41.302Z,10.09
2023-03-21T06:28:43.558Z,10.09
2023-03-21T06:29:45.916Z,10.11
2023-03-21T06:30:49.011Z,10.11
2023-03-21T06:31:56.901Z,10.13
2023-03-21T06:33:00.288Z,10.14
2023-03-21T06:34:02.602Z,10.15
2023-03-21T06:35:06.079Z,10.15
2023-03-21T06:36:09.876Z,10.15
2023-03-21T06:37:13.492Z,10.18
2023-03-21T06:38:16.618Z,10.18
2023-03-21T06:39:18.994Z,10.21
2023-03-21T06:40:21.665Z,10.23
2023-03-21T06:41:23.905Z,10.26
2023-03-21T06:42:28.501Z,10.26
2023-03-21T06:43:33.967Z,10.28
2023-03-21T06:44:38.362Z,10.29
2023-03-21T06:45:43.844Z,10.31
2023-03-21T06:46:46.467Z,10.33
2023-03-21T06:47:50.622Z,10.36
2023-03-21T06:49:00.505Z,10.40
2023-03-21T06:50:05.743Z,10.42
2023-03-21T06:51:08.974Z,10.45
2023-03-21T06:52:12.516Z,10.49
2023-03-21T06:53:17.167Z,10.52
2023-03-21T06:54:37.768Z,10.54
2023-03-21T06:55:41.912Z,10.59
2023-03-21T06:56:46.974Z,10.63
2023-03-21T06:57:51.524Z,10.65
2023-03-21T06:58:54.415Z,10.66
2023-03-21T07:00:01.585Z,10.69
2023-03-21T07:01:05.765Z,10.71
2023-03-21T07:02:11.337Z,10.73
2023-03-21T07:03:17.341Z,10.77
2023-03-21T07:04:21.876Z,10.79
2023-03-21T07:05:24.753Z,10.81
2023-03-21T07:06:28.966Z,10.83
2023-03-21T07:07:31.184Z,10.86
2023-03-21T07:08:37.931Z,10.88
2023-03-21T07:09:44.414Z,10.90
2023-03-21T07:10:49.086Z,10.93
2023-03-21T07:11:52.857Z,10.95
2023-03-21T07:12:59.162Z,10.99
2023-03-21T07:14:11.786Z,11.01
2023-03-21T07:15:17.609Z,11.03
2023-03-21T07:16:21.452Z,11.04
2023-03-21T07:17:25.657Z,11.07
2023-03-21T07:18:28.078Z,11.09
2023-03-21T07:19:30.325Z,11.11
2023-03-21T07:20:34.327Z,11.11
2023-03-21T07:21:36.726Z,11.14
2023-03-21T07:22:40.467Z,11.17
2023-03-21T07:23:43.745Z,11.20
2023-03-21T07:24:50.961Z,11.24
2023-03-21T07:25:53.069Z,11.28
2023-03-21T07:26:55.639Z,11.30
2023-03-21T07:27:58.476Z,11.34
2023-03-21T07:29:01.934Z,11.40
2023-03-21T07:30:08.850Z,11.41
2023-03-21T07:31:20.811Z,11.45
2023-03-21T07:32:25.979Z,11.48
2023-03-21T07:33:33.001Z,11.51
2023-03-21T07:34:37.323Z,11.54
2023-03-21T07:35:42.935Z,11.57
2023-03-21T07:36:50.001Z,11.60
2023-03-21T07:37:55.688Z,11.62
2023-03-21T07:38:58.695Z,11.65
2023-03-21T07:40:06.461Z,11.68
2023-03-21T07:41:10.983Z,11.73
2023-03-21T07:42:14.958Z,11.76
2023-03-21T07:44:24.911Z,11.81
2023-03-21T07:45:29.076Z,11.84
2023-03-21T07:46:31.359Z,11.86
2023-03-21T07:47:36.460Z,11.91
2023-03-21T07:48:41.054Z,11.95
2023-03-21T07:49:44.311Z,11.99
2023-03-21T07:50:53.296Z,12.03
2023-03-21T07:51:55.591Z,12.10
2023-03-21T07:52:58.023Z,12.16
2023-03-21T07:54:00.142Z,12.26
2023-03-21T07:55:02.306Z,12.39
2023-03-21T07:56:07.061Z,12.50
2023-03-21T07:57:09.261Z,12.62
2023-03-21T07:58:13.312Z,12.77
2023-03-21T07:59:15.721Z,12.90
2023-03-21T08:00:21.687Z,13.04
2023-03-21T08:01:25.256Z,13.17
2023-03-21T08:02:28.287Z,13.33
2023-03-21T08:03:34.196Z,13.45
2023-03-21T08:04:36.319Z,13.61
2023-03-21T08:05:42.165Z,13.76
2023-03-21T08:06:49.591Z,13.89
2023-03-21T08:07:54.318Z,14.04
2023-03-21T08:08:57.449Z,14.19
2023-03-21T08:10:01.158Z,14.32
2023-03-21T08:11:07.336Z,14.43
2023-03-21T08:12:15.607Z,14.57
2023-03-21T08:13:17.795Z,14.70
2023-03-21T08:14:23.785Z,14.81
2023-03-21T08:15:27.982Z,14.96
2023-03-21T08:16:32.458Z,15.08
2023-03-21T08:17:39.094Z,15.21
2023-03-21T08:18:47.509Z,15.34
2023-03-21T08:19:50.115Z,15.47
2023-03-21T08:20:56.989Z,15.57
2023-03-21T08:22:00.721Z,15.68
2023-03-21T08:23:02.939Z,15.80
2023-03-21T08:24:05.675Z,15.91
2023-03-21T08:25:13.044Z,16.02
2023-03-21T08:26:18.434Z,16.14
2023-03-21T08:27:26.383Z,16.25
2023-03-21T08:28:29.737Z,16.39
2023-03-21T08:29:32.588Z,16.48
2023-03-21T08:30:37.296Z,16.58
2023-03-21T08:31:40.314Z,16.67
2023-03-21T08:32:44.424Z,16.77
2023-03-21T08:33:46.672Z,16.86
2023-03-21T08:34:48.862Z,16.91
2023-03-21T08:35:51.092Z,16.99
2023-03-21T08:36:53.869Z,17.05
2023-03-21T08:37:56.036Z,17.12
2023-03-21T08:38:58.115Z,17.21
2023-03-21T08:40:00.192Z,17.29
2023-03-21T08:41:02.224Z,17.37
2023-03-21T08:42:04.395Z,17.45
2023-03-21T08:43:06.567Z,17.53
2023-03-21T08:44:11.232Z,17.62
2023-03-21T08:45:16.366Z,17.71
2023-03-21T08:46:18.617Z,17.78
2023-03-21T08:47:21.234Z,17.86
2023-03-21T08:48:23.807Z,17.91
2023-03-21T08:49:30.787Z,17.96
2023-03-21T08:50:33.630Z,18.03
2023-03-21T08:51:35.834Z,18.09
2023-03-21T08:52:39.246Z,18.16
2023-03-21T08:53:43.173Z,18.23
2023-03-21T08:56:04.037Z,18.45
2023-03-21T08:57:06.530Z,18.37
2023-03-21T08:58:10.160Z,18.44
2023-03-21T08:59:18.451Z,18.50
2023-03-21T09:00:20.951Z,18.54
2023-03-21T09:01:25.218Z,18.58
2023-03-21T09:02:29.299Z,18.63
2023-03-21T09:03:32.945Z,18.69
2023-03-21T09:04:37.070Z,18.74
2023-03-21T09:05:41.713Z,18.79
2023-03-21T09:06:44.002Z,18.83
2023-03-21T09:07:47.908Z,18.87
2023-03-21T09:08:49.953Z,18.93
2023-03-21T09:10:08.267Z,18.93
2023-03-21T09:10:59.408Z,18.97
2023-03-21T09:12:02.825Z,19.03
2023-03-21T09:13:05.789Z,19.07
2023-03-21T09:14:09.044Z,19.11
2023-03-21T09:15:12.883Z,19.18
2023-03-21T09:16:18.681Z,19.19
2023-03-21T09:17:21.339Z,19.24
2023-03-21T09:18:24.635Z,19.27
2023-03-21T09:19:30.698Z,19.31
2023-03-21T09:20:34.436Z,19.35
2023-03-21T09:21:40.211Z,19.37
2023-03-21T09:22:46.525Z,19.40
2023-03-21T09:23:50.528Z,19.42
2023-03-21T09:24:53.658Z,19.45
2023-03-21T09:25:55.899Z,19.42
2023-03-21T09:26:59.671Z,19.46
2023-03-21T09:28:07.136Z,19.48
2023-03-21T09:29:09.948Z,19.48
2023-03-21T09:30:20.486Z,19.50
2023-03-21T09:31:23.277Z,19.54
2023-03-21T09:32:29.156Z,19.56
2023-03-21T09:33:33.645Z,19.57
2023-03-21T09:34:39.512Z,19.58
2023-03-21T09:35:42.666Z,19.58
2023-03-21T09:36:46.995Z,19.62
2023-03-21T09:37:52.646Z,19.62
2023-03-21T09:38:59.303Z,19.66
2023-03-21T09:40:02.710Z,19.69
2023-03-21T09:41:20.310Z,19.71
2023-03-21T09:42:41.508Z,19.71
2023-03-21T09:43:56.573Z,19.72
2023-03-21T09:45:20.692Z,19.74
2023-03-21T09:46:40.150Z,19.76
2023-03-21T09:47:52.545Z,19.80
2023-03-21T09:49:04.473Z,19.81
2023-03-21T09:50:21.382Z,19.81
2023-03-21T09:51:29.506Z,19.81
2023-03-21T09:54:06.968Z,19.95
2023-03-21T09:56:36.169Z,19.94
2023-03-21T09:57:43.139Z,19.76
2023-03-21T09:58:52.406Z,19.78
2023-03-21T10:00:03.442Z,19.77
2023-03-21T10:01:15.736Z,19.79
2023-03-21T10:02:38.745Z,19.80
2023-03-21T10:03:42.704Z,19.79
2023-03-21T10:04:46.577Z,19.81
2023-03-21T10:05:57.196Z,19.78
2023-03-21T10:07:02.897Z,19.81
2023-03-21T10:09:47.733Z,19.92
2023-03-21T10:10:52.986Z,19.75
2023-03-21T10:12:08.354Z,19.75
2023-03-21T10:13:14.474Z,19.76
2023-03-21T10:15:59.793Z,19.91
2023-03-21T10:18:30.844Z,19.87
2023-03-21T10:19:43.871Z,19.72
2023-03-21T10:20:49.123Z,19.74
2023-03-21T10:22:01.256Z,19.76
2023-03-21T10:24:13.223Z,19.78
2023-03-21T10:25:34.734Z,19.80
2023-03-21T10:26:37.511Z,19.80
2023-03-21T10:27:40.923Z,19.84
2023-03-21T10:28:52.840Z,19.85
2023-03-21T10:29:50.765Z,19.84
2023-03-21T10:30:59.640Z,19.83
2023-03-21T10:32:02.757Z,19.85
2023-03-21T10:33:09.084Z,19.85
2023-03-21T10:35:43.439Z,20.01
2023-03-21T10:37:48.960Z,19.85
2023-03-21T10:40:17.013Z,19.86
2023-03-21T10:43:40.085Z,19.90
2023-03-21T10:44:46.494Z,19.92
2023-03-21T10:45:48.824Z,19.94
2023-03-21T10:47:07.903Z,19.94
2023-03-21T10:48:11.523Z,19.94
2023-03-21T10:49:18.480Z,19.96
2023-03-21T10:50:21.218Z,19.95
2023-03-21T10:52:55.704Z,20.07
2023-03-21T10:57:39.880Z,19.90
2023-03-21T10:58:46.311Z,19.92
2023-03-21T11:01:04.946Z,19.95
2023-03-21T11:03:25.524Z,19.92
2023-03-21T11:04:29.504Z,19.90
2023-03-21T11:07:04.319Z,20.01
2023-03-21T11:08:12.909Z,19.81
2023-03-21T11:09:18.679Z,19.83
2023-03-21T11:11:54.507Z,19.97
2023-03-21T11:12:59.535Z,19.76
2023-03-21T11:14:04.756Z,19.76
2023-03-21T11:15:27.547Z,19.75
2023-03-21T11:17:50.868Z,19.88
2023-03-21T11:18:56.627Z,19.67
2023-03-21T11:20:01.530Z,19.76
2023-03-21T11:21:07.374Z,19.78
2023-03-21T11:22:11.314Z,19.79
2023-03-21T11:23:13.639Z,19.80
2023-03-21T11:24:18.704Z,19.82
2023-03-21T11:25:39.534Z,19.82
2023-03-21T11:26:44.971Z,19.81
2023-03-21T11:29:17.295Z,19.90
2023-03-21T11:30:26.562Z,19.69
2023-03-21T11:31:40.581Z,19.70
2023-03-21T11:32:42.936Z,19.70
2023-03-21T11:33:54.219Z,19.70
2023-03-21T11:36:23.866Z,19.82
2023-03-21T11:37:30.115Z,19.62
2023-03-21T11:38:39.238Z,19.62
2023-03-21T11:39:45.825Z,19.62
2023-03-21T11:40:57.305Z,19.61
2023-03-21T11:42:00.228Z,19.59
2023-03-21T11:44:40.069Z,19.73
2023-03-21T11:47:12.416Z,19.65
2023-03-21T11:48:15.576Z,19.45
2023-03-21T11:49:18.268Z,19.45
2023-03-21T11:50:36.542Z,19.46
2023-03-21T11:53:22.001Z,19.58
2023-03-21T11:54:28.495Z,19.38
2023-03-21T11:55:35.436Z,19.40
2023-03-21T11:56:47.033Z,19.40
2023-03-21T11:58:02.736Z,19.39
2023-03-21T11:59:19.348Z,19.38
2023-03-21T12:00:28.035Z,19.36
2023-03-21T12:01:51.847Z,19.35
2023-03-21T12:03:22.258Z,19.33
2023-03-21T12:06:13.978Z,19.46
2023-03-21T12:07:31.065Z,19.27
2023-03-21T12:08:45.547Z,19.30
2023-03-21T12:09:57.762Z,19.31
2023-03-21T12:11:12.464Z,19.30
2023-03-21T12:12:29.977Z,19.32
2023-03-21T12:13:57.354Z,19.30
2023-03-21T12:15:15.406Z,19.29
2023-03-21T12:17:42.145Z,19.39
2023-03-21T12:19:13.213Z,19.21
2023-03-21T12:20:52.964Z,19.22
2023-03-21T12:22:01.810Z,19.24
2023-03-21T12:23:29.249Z,19.27
2023-03-21T12:24:44.681Z,19.25
2023-03-21T12:26:07.672Z,19.26
2023-03-21T12:27:32.151Z,19.24
2023-03-21T12:29:11.734Z,19.22
2023-03-21T12:30:42.545Z,19.21
2023-03-21T12:31:54.376Z,19.21
2023-03-21T12:33:06.865Z,19.20
2023-03-21T12:34:22.107Z,19.19
2023-03-21T12:35:43.704Z,19.17
2023-03-21T12:37:09.929Z,19.16
2023-03-21T12:38:25.940Z,19.15
2023-03-21T12:39:31.666Z,19.14
2023-03-21T12:40:54.775Z,19.12
2023-03-21T12:42:13.357Z,19.10
2023-03-21T12:43:29.816Z,19.08
2023-03-21T12:45:58.518Z,19.19
2023-03-21T12:47:04.977Z,19.02
2023-03-21T12:48:40.828Z,19.01
2023-03-21T12:50:02.339Z,19.02
2023-03-21T12:51:08.602Z,19.03
2023-03-21T12:52:14.378Z,19.01
2023-03-21T12:53:39.874Z,18.99
2023-03-21T12:54:57.822Z,18.96
2023-03-21T12:56:03.828Z,18.97
2023-03-21T12:57:27.816Z,18.94
2023-03-21T12:58:34.468Z,18.93
2023-03-21T13:01:41.587Z,19.06
2023-03-21T13:02:53.108Z,18.82
2023-03-21T13:05:48.214Z,18.96
2023-03-21T13:06:55.360Z,18.73
2023-03-21T13:08:19.260Z,18.76
2023-03-21T13:10:47.019Z,18.86
2023-03-21T13:11:53.136Z,18.65
2023-03-21T13:13:01.700Z,18.65
2023-03-21T13:14:07.984Z,18.66
2023-03-21T13:15:33.911Z,18.66
2023-03-21T13:16:55.309Z,18.64
2023-03-21T13:19:20.003Z,18.75
2023-03-21T13:20:32.426Z,18.54
2023-03-21T13:21:56.537Z,18.56
2023-03-21T13:23:00.508Z,18.56
2023-03-21T13:24:07.185Z,18.57
2023-03-21T13:25:21.672Z,18.57
2023-03-21T13:26:33.354Z,18.53
2023-03-21T13:27:38.696Z,18.52
2023-03-21T13:28:41.351Z,18.52
2023-03-21T13:29:52.944Z,18.49
2023-03-21T13:31:19.468Z,18.49
2023-03-21T13:32:37.796Z,18.50
2023-03-21T13:33:41.643Z,18.51
2023-03-21T13:34:44.576Z,18.50
2023-03-21T13:35:50.344Z,18.48
2023-03-21T13:36:56.255Z,18.48
2023-03-21T13:38:07.762Z,18.46
2023-03-21T13:39:13.447Z,18.46
2023-03-21T13:40:28.516Z,18.45
2023-03-21T13:42:50.074Z,18.56
2023-03-21T13:45:35.363Z,18.53
2023-03-21T13:48:06.347Z,18.49
2023-03-21T13:49:12.835Z,18.30
2023-03-21T13:50:21.454Z,18.33
2023-03-21T13:51:33.045Z,18.33
2023-03-21T13:52:35.386Z,18.32
2023-03-21T13:53:40.639Z,18.32
2023-03-21T13:54:54.864Z,18.31
2023-03-21T13:56:16.053Z,18.31
2023-03-21T13:57:40.467Z,18.47
2023-03-21T14:00:11.328Z,18.28
2023-03-21T14:02:17.116Z,18.45
2023-03-21T14:03:20.336Z,18.24
2023-03-21T14:04:32.635Z,18.28
2023-03-21T14:07:17.817Z,18.41
2023-03-21T14:08:31.219Z,18.21
2023-03-21T14:09:30.918Z,18.21
2023-03-21T14:10:37.151Z,18.21
2023-03-21T14:11:46.441Z,18.22
2023-03-21T14:12:45.437Z,18.22
2023-03-21T14:13:51.571Z,18.21
2023-03-21T14:15:16.196Z,18.21
2023-03-21T14:16:16.985Z,18.21
2023-03-21T14:17:30.983Z,18.21
2023-03-21T14:20:57.592Z,18.13
2023-03-21T14:21:59.891Z,18.14
2023-03-21T14:23:06.052Z,18.14
2023-03-21T14:24:15.104Z,18.15
2023-03-21T14:25:23.264Z,18.14
2023-03-21T14:26:30.922Z,18.13
2023-03-21T14:27:35.398Z,18.12
2023-03-21T14:28:41.647Z,18.11
2023-03-21T14:30:56.421Z,18.18
2023-03-21T14:31:59.879Z,18.02
2023-03-21T14:33:17.949Z,18.04
2023-03-21T14:34:23.400Z,18.04
2023-03-21T14:35:30.958Z,18.06
2023-03-21T14:36:38.909Z,18.05
2023-03-21T14:37:45.038Z,18.04
2023-03-21T14:38:56.401Z,18.04
2023-03-21T14:40:05.096Z,18.03
2023-03-21T14:42:38.926Z,18.16
2023-03-21T14:43:41.175Z,17.97
2023-03-21T14:46:06.282Z,18.12
2023-03-21T14:47:21.536Z,17.92
2023-03-21T14:49:42.856Z,18.09
2023-03-21T14:52:17.658Z,18.05
2023-03-21T14:53:26.350Z,17.86
2023-03-21T14:54:30.178Z,17.89
2023-03-21T14:55:32.867Z,17.90
2023-03-21T14:56:38.557Z,17.90
2023-03-21T14:57:44.455Z,17.90
2023-03-21T14:58:50.009Z,17.90
2023-03-21T14:59:56.345Z,17.89
2023-03-21T15:02:18.164Z,18.00
2023-03-21T15:03:23.888Z,17.82
2023-03-21T15:04:28.777Z,17.83
2023-03-21T15:05:34.348Z,17.83
2023-03-21T15:08:14.595Z,17.94
2023-03-21T15:09:20.469Z,17.72
2023-03-21T15:10:25.874Z,17.72
2023-03-21T15:12:54.177Z,17.82
2023-03-21T15:13:58.674Z,17.62
2023-03-21T15:21:33.487Z,17.56
2023-03-21T15:23:56.388Z,17.66
2023-03-21T15:25:02.695Z,17.47
2023-03-21T15:26:06.451Z,17.50
2023-03-21T15:28:30.223Z,17.61
2023-03-21T15:29:34.698Z,17.42
2023-03-21T15:30:37.133Z,17.44
2023-03-21T15:31:41.857Z,17.44
2023-03-21T15:32:46.670Z,17.44
2023-03-21T15:33:52.623Z,17.44
2023-03-21T15:34:57.848Z,17.44
2023-03-21T15:36:01.221Z,17.42
2023-03-21T15:37:07.579Z,17.41
2023-03-21T15:38:31.998Z,17.39
2023-03-21T15:39:34.976Z,17.39
2023-03-21T15:40:37.614Z,17.38
2023-03-21T15:41:40.732Z,17.37
2023-03-21T15:42:43.996Z,17.37
2023-03-21T15:44:10.914Z,17.37
2023-03-21T15:46:41.992Z,17.48
2023-03-21T15:47:53.206Z,17.29
2023-03-21T15:49:14.107Z,17.30
2023-03-21T15:50:32.290Z,17.32
2023-03-21T15:51:35.496Z,17.31
2023-03-21T15:52:38.812Z,17.32
2023-03-21T15:53:44.174Z,17.31
2023-03-21T15:54:49.661Z,17.30
2023-03-21T15:55:55.542Z,17.27
2023-03-21T15:57:01.415Z,17.28
2023-03-21T15:58:07.778Z,17.27
2023-03-21T15:59:15.655Z,17.25
2023-03-21T16:00:24.224Z,17.26
2023-03-21T16:01:30.207Z,17.25
2023-03-21T16:02:32.473Z,17.24
2023-03-21T16:03:38.742Z,17.23
2023-03-21T16:05:00.703Z,17.23
2023-03-21T16:06:16.363Z,17.22
2023-03-21T16:07:20.068Z,17.23
2023-03-21T16:08:46.774Z,17.21
2023-03-21T16:09:50.216Z,17.20
2023-03-21T16:10:53.490Z,17.22
2023-03-21T16:11:58.217Z,17.21
2023-03-21T16:13:01.512Z,17.20
2023-03-21T16:14:03.820Z,17.19
2023-03-21T16:15:07.709Z,17.17
2023-03-21T16:17:35.399Z,17.27
2023-03-21T16:18:38.449Z,17.10
2023-03-21T16:19:41.098Z,17.09